createdAt,value
2022-09-11T00:00:49.688Z,84.00
2022-09-11T00:03:16.523Z,84.14
2022-09-11T00:05:44.320Z,84.16
2022-09-11T00:08:13.812Z,84.93
2022-09-11T00:10:42.859Z,84.66
2022-09-11T00:13:22.842Z,84.88
2022-09-11T00:15:51.541Z,84.80
2022-09-11T00:18:23.547Z,85.21
2022-09-11T00:20:54.906Z,84.40
2022-09-11T00:23:23.713Z,84.82
2022-09-11T00:25:50.495Z,84.31
2022-09-11T00:28:20.247Z,85.05
2022-09-11T00:30:56.881Z,84.55
2022-09-11T00:33:23.495Z,84.95
2022-09-11T00:36:01.385Z,85.26
2022-09-11T00:38:30.029Z,84.97
2022-09-11T00:40:59.202Z,85.38
2022-09-11T00:43:28.663Z,85.16
2022-09-11T00:46:03.286Z,85.61
2022-09-11T00:48:34.052Z,85.31
2022-09-11T00:51:03.895Z,84.83
2022-09-11T00:53:34.504Z,85.63
2022-09-11T00:56:03.966Z,85.14
2022-09-11T00:58:35.935Z,84.94
2022-09-11T01:01:03.594Z,85.20
2022-09-11T01:03:32.347Z,84.76
2022-09-11T01:05:59.711Z,85.18
2022-09-11T01:08:27.685Z,84.94
2022-09-11T01:11:22.056Z,84.72
2022-09-11T01:14:24.144Z,84.86
2022-09-11T01:17:15.294Z,85.04
2022-09-11T01:20:00.493Z,84.34
2022-09-11T01:22:42.263Z,84.02
2022-09-11T01:25:09.219Z,83.69
2022-09-11T01:27:47.245Z,83.55
2022-09-11T01:30:18.330Z,83.59
2022-09-11T01:33:15.497Z,83.20
2022-09-11T01:35:54.461Z,83.19
2022-09-11T01:38:46.817Z,82.97
2022-09-11T01:41:16.969Z,83.38
2022-09-11T01:43:51.895Z,83.65
2022-09-11T01:46:23.057Z,84.15
2022-09-11T01:49:00.980Z,84.08
2022-09-11T01:51:31.656Z,84.29
2022-09-11T01:54:00.605Z,84.98
2022-09-11T01:56:32.669Z,84.76
2022-09-11T01:59:02.514Z,84.22
2022-09-11T02:01:33.845Z,84.59
2022-09-11T02:04:07.177Z,84.48
2022-09-11T02:07:23.359Z,85.47
2022-09-11T02:09:56.668Z,84.59
2022-09-11T02:12:32.224Z,85.17
2022-09-11T02:14:59.568Z,85.40
2022-09-11T02:17:48.187Z,85.28
2022-09-11T02:20:15.747Z,85.25
2022-09-11T02:22:43.278Z,85.01
2022-09-11T02:25:10.776Z,84.53
2022-09-11T02:27:37.351Z,85.02
2022-09-11T02:30:04.234Z,84.76
2022-09-11T02:32:32.702Z,85.24
2022-09-11T02:35:00.339Z,85.06
2022-09-11T02:37:49.187Z,85.20
2022-09-11T02:40:37.031Z,85.26
2022-09-11T02:43:09.388Z,84.88
2022-09-11T02:46:00.539Z,85.39
2022-09-11T02:49:02.639Z,85.23
2022-09-11T02:51:48.615Z,85.71
2022-09-11T02:54:33.363Z,85.88
2022-09-11T02:57:25.504Z,85.68
2022-09-11T02:59:56.352Z,85.68
2022-09-11T03:02:24.955Z,85.87
2022-09-11T03:04:51.485Z,86.09
2022-09-11T03:07:18.054Z,85.67
2022-09-11T03:09:44.593Z,85.71
2022-09-11T03:12:11.553Z,86.17
2022-09-11T03:14:38.245Z,85.39
2022-09-11T03:17:05.427Z,85.65
2022-09-11T03:19:32.108Z,86.46
2022-09-11T03:21:58.820Z,86.24
2022-09-11T03:24:26.432Z,86.13
2022-09-11T03:26:53.076Z,86.20
2022-09-11T03:29:19.571Z,86.25
2022-09-11T03:31:47.378Z,86.30
2022-09-11T03:34:14.483Z,86.33
2022-09-11T03:36:41.138Z,86.53
2022-09-11T03:39:07.648Z,86.54
2022-09-11T03:41:34.159Z,86.70
2022-09-11T03:44:00.814Z,86.37
2022-09-11T03:46:27.926Z,85.95
2022-09-11T03:48:54.611Z,85.56
2022-09-11T03:51:21.334Z,85.46
2022-09-11T03:53:48.263Z,85.15
2022-09-11T03:56:15.064Z,85.39
2022-09-11T03:58:41.612Z,85.21
2022-09-11T04:01:12.598Z,85.40
2022-09-11T04:03:40.719Z,85.83
2022-09-11T04:06:07.977Z,85.72
2022-09-11T04:08:34.668Z,86.05
2022-09-11T04:11:03.937Z,86.29
2022-09-11T04:13:32.914Z,86.64
2022-09-11T04:16:19.171Z,86.83
2022-09-11T04:18:46.923Z,86.62
2022-09-11T04:21:15.947Z,86.93
2022-09-11T04:23:42.651Z,86.78
2022-09-11T04:26:17.897Z,86.79
2022-09-11T04:28:45.255Z,86.65
2022-09-11T04:31:13.637Z,86.61
2022-09-11T04:33:41.009Z,86.41
2022-09-11T04:36:10.130Z,86.31
2022-09-11T04:38:36.900Z,86.07
2022-09-11T04:41:04.502Z,85.79
2022-09-11T04:43:31.711Z,86.37
2022-09-11T04:46:15.268Z,85.89
2022-09-11T04:48:51.673Z,85.49
2022-09-11T04:51:23.905Z,85.24
2022-09-11T04:53:51.998Z,85.83
2022-09-11T04:56:21.258Z,86.29
2022-09-11T04:58:55.118Z,86.59
2022-09-11T05:01:23.224Z,86.10
2022-09-11T05:03:49.881Z,85.95
2022-09-11T05:06:16.587Z,85.05
2022-09-11T05:08:44.900Z,83.51
2022-09-11T05:11:13.533Z,81.71
2022-09-11T05:13:41.422Z,81.02
2022-09-11T05:16:11.173Z,82.01
2022-09-11T05:18:40.063Z,81.53
2022-09-11T05:21:16.728Z,80.96
2022-09-11T05:23:47.473Z,81.26
2022-09-11T05:26:17.114Z,81.67
2022-09-11T05:28:44.279Z,81.99
2022-09-11T05:31:13.090Z,80.65
2022-09-11T05:33:40.322Z,80.26
2022-09-11T05:36:07.288Z,78.27
2022-09-11T05:38:36.620Z,77.18
2022-09-11T05:41:06.374Z,75.58
2022-09-11T05:43:36.379Z,74.80
2022-09-11T05:46:03.345Z,73.90
2022-09-11T05:48:32.045Z,73.55
2022-09-11T05:51:03.594Z,73.06
2022-09-11T05:53:33.702Z,72.61
2022-09-11T05:56:12.472Z,72.33
2022-09-11T05:58:39.223Z,71.42
2022-09-11T06:01:14.455Z,71.63
2022-09-11T06:03:42.156Z,71.52
2022-09-11T06:06:11.383Z,71.23
2022-09-11T06:08:39.567Z,71.31
2022-09-11T06:11:07.676Z,70.50
2022-09-11T06:13:39.569Z,70.91
2022-09-11T06:16:12.636Z,70.13
2022-09-11T06:18:42.509Z,70.18
2022-09-11T06:21:12.317Z,71.37
2022-09-11T06:23:42.105Z,70.91
2022-09-11T06:26:11.393Z,71.17
2022-09-11T06:28:39.211Z,71.02
2022-09-11T06:31:08.031Z,70.82
2022-09-11T06:33:36.295Z,70.17
2022-09-11T06:36:07.883Z,70.25
2022-09-11T06:38:34.405Z,70.15
2022-09-11T06:41:05.514Z,69.82
2022-09-11T06:43:33.106Z,69.38
2022-09-11T06:46:06.810Z,69.19
2022-09-11T06:48:33.574Z,68.45
2022-09-11T06:51:07.678Z,68.02
2022-09-11T06:53:34.602Z,67.69
2022-09-11T06:56:02.452Z,67.35
2022-09-11T06:58:29.537Z,67.63
2022-09-11T07:00:56.999Z,67.85
2022-09-11T07:03:23.647Z,67.87
2022-09-11T07:05:50.259Z,67.91
2022-09-11T07:08:16.771Z,67.39
2022-09-11T07:10:43.293Z,67.72
2022-09-11T07:13:10.978Z,67.13
2022-09-11T07:15:37.578Z,68.36
2022-09-11T07:18:04.164Z,69.68
2022-09-11T07:20:31.519Z,69.75
2022-09-11T07:22:58.589Z,69.83
2022-09-11T07:25:25.734Z,70.73
2022-09-11T07:27:52.909Z,71.95
2022-09-11T07:30:19.880Z,72.19
2022-09-11T07:32:46.657Z,72.68
2022-09-11T07:35:21.661Z,73.21
2022-09-11T07:37:50.834Z,71.51
2022-09-11T07:40:18.290Z,70.82
2022-09-11T07:42:44.887Z,70.69
2022-09-11T07:45:11.731Z,71.62
2022-09-11T07:47:38.619Z,72.18
2022-09-11T07:50:06.148Z,71.60
2022-09-11T07:52:33.075Z,69.99
2022-09-11T07:55:01.393Z,69.33
2022-09-11T07:57:30.129Z,69.28
2022-09-11T07:59:56.721Z,67.95
2022-09-11T08:02:23.314Z,68.44
2022-09-11T08:04:51.688Z,68.27
2022-09-11T08:07:18.704Z,68.98
2022-09-11T08:09:45.280Z,68.36
2022-09-11T08:12:12.316Z,67.66
2022-09-11T08:14:38.973Z,67.44
2022-09-11T08:17:05.473Z,67.54
2022-09-11T08:19:32.977Z,66.79
2022-09-11T08:21:59.555Z,67.39
2022-09-11T08:24:27.397Z,66.40
2022-09-11T08:26:54.195Z,65.47
2022-09-11T08:29:20.740Z,66.42
2022-09-11T08:31:47.266Z,66.95
2022-09-11T08:34:14.035Z,67.49
2022-09-11T08:36:40.623Z,67.81
2022-09-11T08:39:08.993Z,67.48
2022-09-11T08:41:58.190Z,67.09
2022-09-11T08:44:38.526Z,66.38
2022-09-11T08:47:10.258Z,64.23
2022-09-11T08:49:42.994Z,64.54
2022-09-11T08:52:13.350Z,65.69
2022-09-11T08:54:42.667Z,65.45
2022-09-11T08:57:19.497Z,66.58
2022-09-11T09:00:12.305Z,66.56
2022-09-11T09:03:03.400Z,65.24
2022-09-11T09:05:35.519Z,65.45
2022-09-11T09:08:20.259Z,65.12
2022-09-11T09:10:53.217Z,64.38
2022-09-11T09:13:19.683Z,63.95
2022-09-11T09:16:12.648Z,63.68
2022-09-11T09:18:39.170Z,61.23
2022-09-11T09:21:20.676Z,60.64
2022-09-11T09:23:54.620Z,59.81
2022-09-11T09:26:24.252Z,61.19
2022-09-11T09:28:54.851Z,60.98
2022-09-11T09:31:24.091Z,60.32
2022-09-11T09:34:03.967Z,59.45
2022-09-11T09:36:37.694Z,60.27
2022-09-11T09:39:12.983Z,59.23
2022-09-11T09:42:08.422Z,59.56
2022-09-11T09:45:02.759Z,59.97
2022-09-11T09:47:29.771Z,59.61
2022-09-11T09:49:58.422Z,59.85
2022-09-11T09:52:34.261Z,59.15
2022-09-11T09:55:06.951Z,59.41
2022-09-11T09:57:35.921Z,59.09
2022-09-11T10:00:15.499Z,58.49
2022-09-11T10:02:49.341Z,58.52
2022-09-11T10:05:18.187Z,57.03
2022-09-11T10:07:53.883Z,57.00
2022-09-11T10:10:41.151Z,56.83
2022-09-11T10:13:25.077Z,56.50
2022-09-11T10:16:03.913Z,56.68
2022-09-11T10:18:33.089Z,57.21
2022-09-11T10:21:11.554Z,56.78
2022-09-11T10:23:51.582Z,56.35
2022-09-11T10:26:43.190Z,56.80
2022-09-11T10:29:21.322Z,57.31
2022-09-11T10:31:53.457Z,57.53
2022-09-11T10:34:22.428Z,57.30
2022-09-11T10:37:17.724Z,57.69
2022-09-11T10:39:47.293Z,57.64
2022-09-11T10:42:23.207Z,58.18
2022-09-11T10:44:51.534Z,58.52
2022-09-11T10:47:22.152Z,58.91
2022-09-11T10:49:49.357Z,58.11
2022-09-11T10:52:15.863Z,58.33
2022-09-11T10:55:07.506Z,59.33
2022-09-11T10:57:49.978Z,59.30
2022-09-11T11:00:16.445Z,58.60
2022-09-11T11:02:50.517Z,58.42
2022-09-11T11:05:29.598Z,58.10
2022-09-11T11:08:05.555Z,58.01
2022-09-11T11:10:51.245Z,57.71
2022-09-11T11:13:42.650Z,57.31
2022-09-11T11:16:47.542Z,57.51
2022-09-11T11:19:43.324Z,56.51
2022-09-11T11:23:16.445Z,56.79
2022-09-11T11:25:48.718Z,56.40
2022-09-11T11:28:53.771Z,56.98
2022-09-11T11:31:44.367Z,56.33
2022-09-11T11:34:51.323Z,56.47
2022-09-11T11:37:26.262Z,56.34
2022-09-11T11:40:24.883Z,56.50
2022-09-11T11:42:56.611Z,54.70
2022-09-11T11:45:33.146Z,55.22
2022-09-11T11:48:05.861Z,54.68
2022-09-11T11:50:45.833Z,54.45
2022-09-11T11:53:39.062Z,54.78
2022-09-11T11:56:28.867Z,53.58
2022-09-11T11:59:14.163Z,54.42
2022-09-11T12:01:49.199Z,54.19
2022-09-11T12:04:27.605Z,54.97
2022-09-11T12:06:54.192Z,55.20
2022-09-11T12:09:20.833Z,55.33
2022-09-11T12:11:51.595Z,55.06
2022-09-11T12:14:29.959Z,54.31
2022-09-11T12:16:57.051Z,54.45
2022-09-11T12:19:27.803Z,54.64
2022-09-11T12:21:54.459Z,53.99
2022-09-11T12:24:24.469Z,54.43
2022-09-11T12:27:28.796Z,54.66
2022-09-11T12:29:57.494Z,54.10
2022-09-11T12:32:29.092Z,53.08
2022-09-11T12:35:01.821Z,53.50
2022-09-11T12:37:37.816Z,52.85
2022-09-11T12:40:49.768Z,51.40
2022-09-11T12:43:26.358Z,51.55
2022-09-11T12:45:53.124Z,50.73
2022-09-11T12:48:23.600Z,51.63
2022-09-11T12:50:57.084Z,51.58
2022-09-11T12:53:31.539Z,52.49
2022-09-11T12:56:01.320Z,51.99
2022-09-11T12:58:44.327Z,52.38
2022-09-11T13:01:11.744Z,52.45
2022-09-11T13:03:46.710Z,52.19
2022-09-11T13:06:13.769Z,51.95
2022-09-11T13:08:54.152Z,52.62
2022-09-11T13:11:54.098Z,52.64
2022-09-11T13:14:29.566Z,52.17
2022-09-11T13:16:57.816Z,51.73
2022-09-11T13:19:32.324Z,52.50
2022-09-11T13:21:58.903Z,52.83
2022-09-11T13:24:32.413Z,52.31
2022-09-11T13:27:04.074Z,51.50
2022-09-11T13:29:33.361Z,51.16
2022-09-11T13:32:05.406Z,50.55
2022-09-11T13:34:36.000Z,49.36
2022-09-11T13:37:10.344Z,49.31
2022-09-11T13:39:42.971Z,49.21
2022-09-11T13:42:18.074Z,49.12
2022-09-11T13:44:50.620Z,48.98
2022-09-11T13:47:20.210Z,48.87
2022-09-11T13:49:48.165Z,48.85
2022-09-11T13:52:15.447Z,48.65
2022-09-11T13:54:47.922Z,48.13
2022-09-11T13:57:23.051Z,46.70
2022-09-11T13:59:54.155Z,45.83
2022-09-11T14:02:40.737Z,44.83
2022-09-11T14:05:07.540Z,43.38
2022-09-11T14:07:41.188Z,43.22
2022-09-11T14:10:18.356Z,42.22
2022-09-11T14:13:27.796Z,41.81
2022-09-11T14:16:10.370Z,39.60
2022-09-11T14:18:52.841Z,40.90
2022-09-11T14:21:46.941Z,39.59
2022-09-11T14:24:35.025Z,39.89
2022-09-11T14:27:04.374Z,38.66
2022-09-11T14:29:32.662Z,37.00
2022-09-11T14:32:31.306Z,37.37
2022-09-11T14:34:58.962Z,36.83
2022-09-11T14:37:28.057Z,38.14
2022-09-11T14:40:00.292Z,37.92
2022-09-11T14:42:29.808Z,36.35
2022-09-11T14:44:56.487Z,36.16
2022-09-11T14:47:25.701Z,36.83
2022-09-11T14:49:54.048Z,36.79
2022-09-11T14:52:22.989Z,36.30
2022-09-11T14:54:49.655Z,36.29
2022-09-11T14:57:32.430Z,35.63
2022-09-11T14:59:59.571Z,36.40
2022-09-11T15:02:28.409Z,35.01
2022-09-11T15:04:57.323Z,34.12
2022-09-11T15:07:25.086Z,32.59
2022-09-11T15:09:53.392Z,33.57
2022-09-11T15:12:20.927Z,34.51
2022-09-11T15:14:57.777Z,33.39
2022-09-11T15:17:28.356Z,34.44
2022-09-11T15:19:54.879Z,34.47
2022-09-11T15:22:21.651Z,35.19
2022-09-11T15:24:49.886Z,34.86
2022-09-11T15:27:19.151Z,33.83
2022-09-11T15:29:46.220Z,34.04
2022-09-11T15:32:14.430Z,33.65
2022-09-11T15:34:42.045Z,33.49
2022-09-11T15:37:08.767Z,33.56
2022-09-11T15:39:35.410Z,33.95
2022-09-11T15:42:02.232Z,33.75
2022-09-11T15:44:29.180Z,32.97
2022-09-11T15:46:58.514Z,33.15
2022-09-11T15:49:28.119Z,33.74
2022-09-11T15:51:55.724Z,33.28
2022-09-11T15:54:23.599Z,32.06
2022-09-11T15:56:51.168Z,31.88
2022-09-11T15:59:17.817Z,32.24
2022-09-11T16:01:45.187Z,32.66
2022-09-11T16:04:22.092Z,31.87
2022-09-11T16:06:49.630Z,32.53
2022-09-11T16:09:20.121Z,32.78
2022-09-11T16:11:50.727Z,33.68
2022-09-11T16:14:24.303Z,34.09
2022-09-11T16:16:51.994Z,33.44
2022-09-11T16:19:21.171Z,32.67
2022-09-11T16:21:48.562Z,32.29
2022-09-11T16:24:15.524Z,32.38
2022-09-11T16:26:44.159Z,32.23
2022-09-11T16:29:15.259Z,32.70
2022-09-11T16:31:42.644Z,35.05
2022-09-11T16:34:10.325Z,37.00
2022-09-11T16:36:40.451Z,37.86
2022-09-11T16:39:15.474Z,39.37
2022-09-11T16:41:42.887Z,41.06
2022-09-11T16:44:12.467Z,42.13
2022-09-11T16:46:40.718Z,42.03
2022-09-11T16:49:07.522Z,43.13
2022-09-11T16:51:34.275Z,43.20
2022-09-11T16:54:01.534Z,45.19
2022-09-11T16:56:28.312Z,46.09
2022-09-11T16:58:55.411Z,46.49
2022-09-11T17:01:24.477Z,47.36
2022-09-11T17:03:53.167Z,48.16
2022-09-11T17:06:20.906Z,48.80
2022-09-11T17:08:50.480Z,49.29
2022-09-11T17:11:19.507Z,49.95
2022-09-11T17:13:46.618Z,50.42
2022-09-11T17:16:19.375Z,51.05
2022-09-11T17:18:51.286Z,51.27
2022-09-11T17:21:17.750Z,51.58
2022-09-11T17:23:44.674Z,52.08
2022-09-11T17:26:14.196Z,52.80
2022-09-11T17:28:42.367Z,53.49
2022-09-11T17:31:14.485Z,53.79
2022-09-11T17:33:41.532Z,54.00
2022-09-11T17:36:10.382Z,54.11
2022-09-11T17:38:38.487Z,54.24
2022-09-11T17:41:07.539Z,54.45
2022-09-11T17:43:35.330Z,55.30
2022-09-11T17:46:13.850Z,56.06
2022-09-11T17:48:41.083Z,56.69
2022-09-11T17:51:20.219Z,56.85
2022-09-11T17:53:56.228Z,57.46
2022-09-11T17:56:26.017Z,57.80
2022-09-11T17:58:57.273Z,58.15
2022-09-11T18:01:25.649Z,58.42
2022-09-11T18:03:56.734Z,59.29
2022-09-11T18:06:26.334Z,59.62
2022-09-11T18:08:54.442Z,59.84
2022-09-11T18:11:21.027Z,60.15
2022-09-11T18:13:47.659Z,60.58
2022-09-11T18:16:14.277Z,60.78
2022-09-11T18:18:40.919Z,61.46
2022-09-11T18:21:09.659Z,61.09
2022-09-11T18:23:41.985Z,61.62
2022-09-11T18:26:10.353Z,62.03
2022-09-11T18:28:39.880Z,62.27
2022-09-11T18:31:07.002Z,61.72
2022-09-11T18:33:33.757Z,62.50
2022-09-11T18:36:10.402Z,62.23
2022-09-11T18:38:37.564Z,62.77
2022-09-11T18:41:04.567Z,63.18
2022-09-11T18:43:31.161Z,63.04
2022-09-11T18:46:02.070Z,63.60
2022-09-11T18:48:28.628Z,63.48
2022-09-11T18:50:55.197Z,64.02
2022-09-11T18:53:22.043Z,64.72
2022-09-11T18:55:48.599Z,64.95
2022-09-11T18:58:15.159Z,64.75
2022-09-11T19:00:41.799Z,65.35
2022-09-11T19:03:11.212Z,65.18
2022-09-11T19:05:37.824Z,65.61
2022-09-11T19:08:04.416Z,65.72
2022-09-11T19:10:31.003Z,66.68
2022-09-11T19:12:57.597Z,66.51
2022-09-11T19:15:25.421Z,66.79
2022-09-11T19:17:55.378Z,67.26
2022-09-11T19:20:22.111Z,67.19
2022-09-11T19:22:48.764Z,67.35
2022-09-11T19:25:16.064Z,67.90
2022-09-11T19:27:42.805Z,67.95
2022-09-11T19:30:09.802Z,68.49
2022-09-11T19:32:36.577Z,68.37
2022-09-11T19:35:04.182Z,68.15
2022-09-11T19:37:37.395Z,68.63
2022-09-11T19:40:05.167Z,68.96
2022-09-11T19:42:32.463Z,69.50
2022-09-11T19:45:00.317Z,69.52
2022-09-11T19:47:28.390Z,69.15
2022-09-11T19:49:55.365Z,69.59
2022-09-11T19:52:25.402Z,70.27
2022-09-11T19:54:53.864Z,70.19
2022-09-11T19:57:20.485Z,70.14
2022-09-11T19:59:47.165Z,70.50
2022-09-11T20:02:14.215Z,70.65
2022-09-11T20:04:40.967Z,71.17
2022-09-11T20:07:07.658Z,71.58
2022-09-11T20:09:34.523Z,71.73
2022-09-11T20:12:01.745Z,71.96
2022-09-11T20:14:29.593Z,71.55
2022-09-11T20:16:56.121Z,71.99
2022-09-11T20:19:24.874Z,71.99
2022-09-11T20:21:51.406Z,72.68
2022-09-11T20:24:18.044Z,72.56
2022-09-11T20:26:44.565Z,72.73
2022-09-11T20:29:15.958Z,73.00
2022-09-11T20:31:47.526Z,73.15
2022-09-11T20:34:15.931Z,73.50
2022-09-11T20:36:42.623Z,73.28
2022-09-11T20:39:13.002Z,73.84
2022-09-11T20:41:39.648Z,73.89
2022-09-11T20:44:06.212Z,74.03
2022-09-11T20:46:32.859Z,74.24
2022-09-11T20:49:00.907Z,73.88
2022-09-11T20:51:29.987Z,74.69
2022-09-11T20:53:56.700Z,74.86
2022-09-11T20:56:24.003Z,75.19
2022-09-11T20:58:51.631Z,75.10
2022-09-11T21:01:21.399Z,75.17
2022-09-11T21:03:54.143Z,75.00
2022-09-11T21:06:25.923Z,75.25
2022-09-11T21:08:57.920Z,75.07
2022-09-11T21:11:26.043Z,74.81
2022-09-11T21:13:53.051Z,75.20
2022-09-11T21:16:21.043Z,75.53
2022-09-11T21:18:52.800Z,75.97
2022-09-11T21:21:20.627Z,76.14
2022-09-11T21:23:47.634Z,76.00
2022-09-11T21:26:16.635Z,76.33
2022-09-11T21:28:43.619Z,75.97
2022-09-11T21:31:10.636Z,75.99
2022-09-11T21:33:38.262Z,76.26
2022-09-11T21:36:05.903Z,76.46
2022-09-11T21:38:32.778Z,77.03
2022-09-11T21:41:01.065Z,76.92
2022-09-11T21:43:28.062Z,76.99
2022-09-11T21:45:54.602Z,76.97
2022-09-11T21:48:21.186Z,76.57
2022-09-11T21:50:47.716Z,76.90
2022-09-11T21:53:14.544Z,77.49
2022-09-11T21:55:43.257Z,77.22
2022-09-11T21:58:15.481Z,77.24
2022-09-11T22:00:43.350Z,77.62
2022-09-11T22:03:12.618Z,77.73
2022-09-11T22:05:43.388Z,77.45
2022-09-11T22:08:12.003Z,77.35
2022-09-11T22:10:47.337Z,77.63
2022-09-11T22:13:14.423Z,77.77
2022-09-11T22:15:45.726Z,78.12
2022-09-11T22:18:12.970Z,78.16
2022-09-11T22:20:41.507Z,78.11
2022-09-11T22:23:13.348Z,78.39
2022-09-11T22:25:40.887Z,78.28
2022-09-11T22:28:07.977Z,78.50
2022-09-11T22:30:34.611Z,78.57
2022-09-11T22:33:01.735Z,78.96
2022-09-11T22:35:28.837Z,79.08
2022-09-11T22:37:55.708Z,79.13
2022-09-11T22:40:22.260Z,79.01
2022-09-11T22:42:49.904Z,78.98
2022-09-11T22:45:17.039Z,79.18
2022-09-11T22:47:43.658Z,79.16
2022-09-11T22:50:10.254Z,79.27
2022-09-11T22:52:37.446Z,79.58
2022-09-11T22:55:05.788Z,79.53
2022-09-11T22:57:34.957Z,79.05
2022-09-11T23:00:02.472Z,79.42
2022-09-11T23:02:28.974Z,79.30
2022-09-11T23:05:14.014Z,79.84
2022-09-11T23:07:40.858Z,79.56
2022-09-11T23:10:09.803Z,79.39
2022-09-11T23:12:37.400Z,79.80
2022-09-11T23:15:04.485Z,79.92
2022-09-11T23:17:31.059Z,79.71
2022-09-11T23:19:57.579Z,79.90
2022-09-11T23:22:25.822Z,79.43
2022-09-11T23:24:52.398Z,79.86
2022-09-11T23:27:19.119Z,79.56
2022-09-11T23:29:45.639Z,79.90
2022-09-11T23:32:12.167Z,79.41
2022-09-11T23:34:38.665Z,79.57
2022-09-11T23:37:05.214Z,79.14
2022-09-11T23:39:31.873Z,79.69
2022-09-11T23:41:58.377Z,80.01
2022-09-11T23:44:24.962Z,79.70
2022-09-11T23:46:51.462Z,80.15
2022-09-11T23:49:18.006Z,79.47
2022-09-11T23:51:44.623Z,79.71
2022-09-11T23:54:11.113Z,79.83
2022-09-11T23:56:37.611Z,80.37
2022-09-11T23:59:04.126Z,79.87
